Cobb County-Mc Collum Field
KRYY : rendu visible

Aérodrome :











RETROUVEZ-NOUS SUR...

 
LOGIN :

S'inscrire | Disclaimer

   EN    FR    IT 

 









Légende :    VFR   VFR Marginal   IFR   IFR Intensif   IFR Très Intensif
Visi : 
Plafond : 
>= 8 km
>= 3000ft
5 à 8 km
1000 à 3000 ft
1500m à 5 km
500 à 1000 ft
800 à 1500m
200 à 500 ft
< 800m
< 200 ft
Symboles :   Orages  Brouillard  Fortes neiges  Fortes précipitations  Vent > 20 kt






- Altitude de l'aérodrome : 1040 ft


KRYY - Cobb County-Mc Collum Field

DERNIER METAR :
  • 181650Z 11006KT 10SM OVC020 07/02 A3033 RMK AO2 SLP992 T00720017 PNO $

METARs EXPIRÉS :
  • 181550Z 10011KT 10SM OVC020 07/01 A3036 RMK AO2 SLP002 T00670011 PNO $

TAF KRYY
Valide du 18 à 18h jusqu'au 19 à 18h UTC


181739Z 1818/1918 12007KT P6SM -SHRA OVC020
TEMPO 1818/1821 4SM -SHRA BR OVC015
FM182100 17009KT 5SM -SHRA BR OVC007
FM190200 21008KT 4SM -SHRA BR OVC005
FM190800 31012G20KT P6SM SCT010 OVC035
FM191200 31013G21KT P6SM SCT040 SCT250



MET'MAP, la Météo Aéronautique d'un coup d'oeil ! - Copyright ORBIFLY Décembre 2007 - Disclaimer

ORBIFLY MET'MAP TEAM :

Programmation & Développement : Alexandra Zaïnal
Sur une idée originale de : Baudouin d'Aumeries
Assistance à la programmation : Marc-Olivier Méhu
Soutien technique & logistique : Manuel Goepfert

Contact : metmap@orbifly.com




SOURCES & CREDITS :

   NOAA       Earth
Advisory